Time;durP1;ratioP1;P1;durP2;ratioP2;P2;SDS_P1;SDS_P2;PMS_P1;PMS_P2;Temp;Humidity;BMP_temperature;BMP_pressure;BME280_temperature;BME280_humidity;BME280_pressure;Samples;Min_cycle;Max_cycle;Signal;HPM_P1;HPM_P2
2022/12/27 00:01:20;;;;;;;;;14.33;13.33;;;;;7.37;63.63;102158.41;5057620;28;45210;-71
2022/12/27 00:03:46;;;;;;;;;15.00;14.00;;;;;8.03;64.59;102268.41;5057597;28;45554;-71
2022/12/27 00:06:15;;;;;;;;;11.67;10.33;;;;;7.98;64.73;102260.72;5039542;28;45647;-72
2022/12/27 00:08:41;;;;;;;;;13.00;13.00;;;;;7.42;63.67;102156.38;5057633;28;45337;-76
2022/12/27 00:11:08;;;;;;;;;11.67;9.67;;;;;8.22;63.47;102285.78;5039393;28;45527;-72
2022/12/27 00:13:34;;;;;;;;;12.67;10.00;;;;;7.83;63.66;102219.25;5057441;28;45659;-72
2022/12/27 00:16:11;;;;;;;;;14.00;9.33;;;;;8.36;63.61;102307.97;5057161;28;45610;-74
2022/12/27 00:18:38;;;;;;;;;11.67;9.67;;;;;8.33;63.80;102311.63;5057324;28;45363;-71
2022/12/27 00:21:05;;;;;;;;;8.33;8.33;;;;;8.29;63.89;102314.53;5039207;28;45287;-72
2022/12/27 00:23:33;;;;;;;;;12.33;9.67;;;;;8.29;63.89;102315.41;5057256;28;45490;-70
2022/12/27 00:26:00;;;;;;;;;12.00;10.67;;;;;8.20;63.90;102298.22;5038998;28;46475;-73
2022/12/27 00:28:27;;;;;;;;;14.33;12.00;;;;;8.34;63.91;102315.16;5057037;28;45284;-71
2022/12/27 00:30:54;;;;;;;;;13.33;11.67;;;;;8.10;63.92;102286.47;5057300;28;45379;-71
2022/12/27 00:33:19;;;;;;;;;11.67;11.67;;;;;8.24;64.20;102320.13;5039424;28;45573;-73
2022/12/27 00:35:44;;;;;;;;;14.33;13.00;;;;;7.94;64.19;102275.06;5039019;28;46523;-72
2022/12/27 00:38:10;;;;;;;;;15.33;11.33;;;;;7.36;64.31;102182.31;5056452;28;66678;-71
2022/12/27 00:40:38;;;;;;;;;12.33;11.33;;;;;8.09;64.22;102324.50;5057125;28;45292;-72
2022/12/27 00:43:03;;;;;;;;;12.00;12.00;;;;;7.39;64.83;102208.59;5057512;28;45278;-71
2022/12/27 00:45:29;;;;;;;;;11.00;11.00;;;;;7.92;64.97;102308.75;5056768;28;45565;-70
2022/12/27 00:47:54;;;;;;;;;15.67;14.00;;;;;7.98;64.83;102313.69;5057045;28;45250;-72
2022/12/27 00:50:20;;;;;;;;;10.67;7.33;;;;;7.91;64.87;102305.25;5038901;28;45451;-71
2022/12/27 00:52:45;;;;;;;;;11.33;10.00;;;;;8.07;64.97;102318.47;5057020;28;45605;-69
2022/12/27 00:55:10;;;;;;;;;13.00;9.00;;;;;7.97;65.12;102317.25;5056694;28;45840;-71
2022/12/27 00:57:36;;;;;;;;;9.67;7.00;;;;;7.96;65.25;102330.59;5056471;28;45416;-71
2022/12/27 01:00:03;;;;;;;;;12.67;9.00;;;;;7.93;65.39;102328.97;5059633;28;45205;-72
2022/12/27 01:02:28;;;;;;;;;13.33;10.67;;;;;7.85;65.31;102302.09;5060378;28;45301;-71
2022/12/27 01:04:53;;;;;;;;;13.00;11.33;;;;;7.98;65.16;102340.16;5059829;28;46780;-70
2022/12/27 01:07:19;;;;;;;;;9.33;9.33;;;;;8.02;65.47;102341.72;5060145;28;45470;-71
2022/12/27 01:09:44;;;;;;;;;10.33;8.33;;;;;8.07;64.98;102347.59;5060421;28;45368;-70
2022/12/27 01:12:09;;;;;;;;;12.33;9.33;;;;;8.07;65.20;102350.25;5042389;28;45564;-73
2022/12/27 01:14:35;;;;;;;;;11.00;7.33;;;;;8.03;65.29;102332.81;5059653;28;48995;-71
2022/12/27 01:17:00;;;;;;;;;8.33;8.33;;;;;7.88;65.23;102307.22;5060200;28;45417;-70
2022/12/27 01:19:25;;;;;;;;;9.00;6.00;;;;;7.90;65.33;102313.28;5060288;28;45348;-72
2022/12/27 01:21:51;;;;;;;;;12.33;9.67;;;;;8.06;65.40;102348.53;5060031;28;45646;-71
2022/12/27 01:24:16;;;;;;;;;6.67;6.67;;;;;7.74;65.65;102299.22;5060040;28;46466;-71
2022/12/27 01:26:41;;;;;;;;;5.67;5.00;;;;;7.17;65.41;102201.88;5059740;28;49885;-72
2022/12/27 01:29:11;;;;;;;;;6.67;6.67;;;;;7.88;65.66;102323.97;5059756;28;45251;-70
2022/12/27 01:31:36;;;;;;;;;6.67;5.67;;;;;8.00;66.11;102348.88;5060029;28;45443;-70
2022/12/27 01:34:02;;;;;;;;;12.00;6.00;;;;;7.52;65.89;102255.44;5059516;28;46781;-70
2022/12/27 01:36:29;;;;;;;;;6.67;5.00;;;;;7.03;65.84;102179.81;5059494;28;48462;-71
2022/12/27 01:38:54;;;;;;;;;9.33;7.00;;;;;8.04;66.09;102350.41;5059712;28;45506;-71
2022/12/27 01:44:50;;;;;;;;;5.00;2.67;;;;;8.09;65.72;102345.69;5059354;28;45823;-71
2022/12/27 01:47:18;;;;;;;;;9.67;5.00;;;;;8.02;66.02;102336.41;5059542;28;45300;-72
2022/12/27 01:50:25;;;;;;;;;8.00;6.00;;;;;8.07;65.90;102358.19;5059871;28;45305;-70
2022/12/27 01:52:58;;;;;;;;;6.67;4.00;;;;;7.66;65.58;102286.41;5020185;28;45556;-71
2022/12/27 01:55:49;;;;;;;;;5.00;5.00;;;;;7.87;65.91;102324.91;5059423;28;45746;-71
2022/12/27 01:58:30;;;;;;;;;6.00;6.00;;;;;8.06;65.85;102361.78;5058714;28;45270;-71
2022/12/27 02:00:56;;;;;;;;;6.00;6.00;;;;;8.06;65.93;102364.44;5059488;28;45478;-72
2022/12/27 02:03:28;;;;;;;;;10.00;6.67;;;;;8.07;65.86;102403.22;5041442;28;45276;-70
2022/12/27 02:05:54;;;;;;;;;7.33;7.00;;;;;7.97;66.22;102367.59;5059389;28;45721;-70
2022/12/27 02:08:28;;;;;;;;;7.33;6.00;;;;;8.00;66.14;102369.19;5059316;28;45324;-71
2022/12/27 02:10:55;;;;;;;;;8.33;7.67;;;;;7.53;65.66;102296.84;5040473;28;45471;-70
2022/12/27 02:13:20;;;;;;;;;13.00;5.67;;;;;7.97;66.34;102379.97;5059538;28;45574;-72
2022/12/27 02:15:46;;;;;;;;;8.67;7.67;;;;;7.92;66.38;102389.03;5059267;28;45637;-71
2022/12/27 02:18:11;;;;;;;;;9.00;9.00;;;;;7.89;66.50;102388.38;5059053;28;45475;-71
2022/12/27 02:21:04;;;;;;;;;10.67;8.67;;;;;7.89;66.59;102383.06;5059423;28;45274;-71
2022/12/27 02:24:03;;;;;;;;;7.00;5.67;;;;;7.82;66.50;102376.44;5040694;28;45328;-70
2022/12/27 02:26:41;;;;;;;;;11.00;7.67;;;;;7.78;66.78;102362.47;5058739;28;46912;-72
2022/12/27 02:29:52;;;;;;;;;10.33;7.00;;;;;7.88;66.86;102373.41;5059045;28;45466;-73
2022/12/27 02:32:33;;;;;;;;;5.67;5.67;;;;;7.81;66.88;102358.84;5040154;28;45347;-72
2022/12/27 02:35:19;;;;;;;;;9.67;8.33;;;;;6.82;66.61;102193.28;5059286;28;45525;-71
2022/12/27 02:37:51;;;;;;;;;7.33;5.33;;;;;7.89;66.77;102370.69;5058143;28;47305;-71
2022/12/27 02:55:13;;;;;;;;;6.67;6.67;;;;;7.83;67.02;102362.25;5058625;28;45317;-72
2022/12/27 02:58:06;;;;;;;;;7.67;4.67;;;;;7.84;66.62;102364.81;5040596;28;45493;-70
2022/12/27 03:03:53;;;;;;;;;10.33;9.33;;;;;7.52;67.18;102326.03;5058425;28;45447;-70
2022/12/27 03:06:40;;;;;;;;;8.67;8.33;;;;;7.80;66.93;102378.28;5040403;28;45457;-72
2022/12/27 03:15:55;;;;;;;;;11.67;7.00;;;;;7.92;66.96;102388.19;5064961;27;45433;-71
2022/12/27 03:18:41;;;;;;;;;7.00;7.00;;;;;7.94;66.76;102381.00;5078503;28;45377;-70
2022/12/27 03:26:43;;;;;;;;;6.33;5.33;;;;;7.99;66.57;102371.00;5079697;27;45319;-70
2022/12/27 03:35:14;;;;;;;;;8.00;6.00;;;;;7.85;67.39;102386.84;5078073;27;45740;-71
2022/12/27 03:38:03;;;;;;;;;6.33;5.00;;;;;7.79;66.80;102387.16;5077157;27;45294;-70
2022/12/27 03:43:35;;;;;;;;;8.33;5.67;;;;;7.80;67.34;102394.16;5078511;27;45411;-73
2022/12/27 03:46:35;;;;;;;;;8.33;7.33;;;;;7.78;67.17;102393.41;5076277;28;48661;-71
2022/12/27 03:49:21;;;;;;;;;9.67;6.00;;;;;7.69;67.38;102393.91;5078044;27;45317;-71
2022/12/27 03:51:50;;;;;;;;;10.67;6.00;;;;;7.65;67.39;102392.38;5076777;28;45403;-72
2022/12/27 03:54:25;;;;;;;;;11.00;8.33;;;;;7.11;67.50;102305.38;5078191;28;45251;-71
2022/12/27 03:56:52;;;;;;;;;6.67;6.67;;;;;6.98;68.02;102273.44;5077716;28;45688;-70
2022/12/27 03:59:18;;;;;;;;;11.00;8.33;;;;;7.72;67.37;102391.09;5077599;27;45399;-71
2022/12/27 04:01:43;;;;;;;;;9.67;5.67;;;;;7.68;68.09;102401.00;5077876;28;45762;-71
2022/12/27 04:04:08;;;;;;;;;7.33;6.67;;;;;7.58;67.93;102383.91;5077894;27;45337;-71
2022/12/27 04:06:33;;;;;;;;;8.33;6.33;;;;;7.62;68.07;102385.47;5075689;28;64543;-71
2022/12/27 04:36:17;;;;;;;;;11.67;10.67;;;;;7.29;67.75;102325.53;5057307;28;45364;-71
2022/12/27 04:38:43;;;;;;;;;14.00;11.00;;;;;7.68;67.59;102386.91;5056263;28;57192;-70
2022/12/27 04:55:10;;;;;;;;;12.00;10.67;;;;;7.78;67.82;102390.75;5056979;28;45326;-71
2022/12/27 04:57:35;;;;;;;;;8.67;6.00;;;;;7.52;68.23;102353.34;5056968;28;45381;-73
2022/12/27 05:02:45;;;;;;;;;11.67;10.67;;;;;7.66;68.36;102367.63;5056692;28;45183;-71
2022/12/27 05:05:11;;;;;;;;;10.67;10.67;;;;;7.54;68.30;102347.97;5056497;28;45230;-70
2022/12/27 05:15:49;;;;;;;;;15.00;12.00;;;;;7.52;68.07;102363.94;5056483;28;45292;-69
2022/12/27 05:18:14;;;;;;;;;9.33;9.33;;;;;7.68;68.19;102389.56;5056814;28;45366;-71
2022/12/27 05:20:39;;;;;;;;;12.67;10.00;;;;;7.69;68.13;102378.03;5055799;28;62476;-71
2022/12/27 05:25:48;;;;;;;;;9.67;8.67;;;;;7.68;68.01;102381.63;5056429;28;45226;-71
2022/12/27 05:28:14;;;;;;;;;7.33;7.33;;;;;7.71;68.06;102394.69;5056668;28;45542;-70
2022/12/27 05:30:41;;;;;;;;;5.33;5.33;;;;;7.70;68.29;102366.50;5056061;28;45747;-71
2022/12/27 05:33:07;;;;;;;;;13.00;10.33;;;;;7.09;68.02;102264.94;5056378;28;45180;-72
2022/12/27 05:35:33;;;;;;;;;13.00;11.33;;;;;7.56;67.90;102351.38;5056562;28;45486;-72
2022/12/27 05:37:59;;;;;;;;;9.33;9.33;;;;;7.76;67.96;102382.03;5056672;28;45310;-71
2022/12/27 05:40:25;;;;;;;;;7.33;7.00;;;;;7.33;67.77;102315.63;5038091;28;49007;-70
2022/12/27 05:42:51;;;;;;;;;9.00;5.00;;;;;7.74;67.92;102378.63;5055931;28;45502;-70
2022/12/27 05:45:16;;;;;;;;;10.67;10.00;;;;;7.00;68.23;102268.06;5037998;28;45451;-71
2022/12/27 05:47:42;;;;;;;;;9.67;6.67;;;;;7.69;68.40;102381.53;5059658;28;45530;-70
2022/12/27 05:50:08;;;;;;;;;10.00;8.67;;;;;7.35;68.49;102323.47;5041353;28;47928;-71
2022/12/27 05:52:33;;;;;;;;;7.00;6.33;;;;;7.44;68.54;102354.72;5059531;28;45197;-71
2022/12/27 05:54:59;;;;;;;;;8.00;7.67;;;;;7.50;68.23;102371.09;5060225;28;45403;-71
2022/12/27 05:57:24;;;;;;;;;9.67;6.33;;;;;7.61;68.49;102381.97;5060456;28;45702;-73
2022/12/27 05:59:49;;;;;;;;;10.33;8.33;;;;;7.57;68.34;102372.47;5061552;28;45329;-71
2022/12/27 06:02:15;;;;;;;;;9.33;7.00;;;;;7.47;69.06;102376.56;5059313;28;45498;-73
2022/12/27 06:04:40;;;;;;;;;12.67;10.67;;;;;7.20;69.06;102314.56;5041243;28;45376;-71
2022/12/27 06:07:05;;;;;;;;;7.33;6.33;;;;;7.39;68.96;102352.31;5059211;28;47919;-72
2022/12/27 06:09:31;;;;;;;;;8.33;8.00;;;;;7.42;69.46;102365.41;5059245;28;45253;-71
2022/12/27 06:11:56;;;;;;;;;11.33;10.33;;;;;7.28;69.50;102338.84;5059338;28;45372;-70
2022/12/27 06:14:21;;;;;;;;;10.00;6.67;;;;;7.31;69.31;102375.69;5059108;28;45265;-70
2022/12/27 06:16:47;;;;;;;;;8.67;6.33;;;;;6.71;69.77;102275.78;5059523;28;45226;-72
2022/12/27 06:19:12;;;;;;;;;8.33;8.33;;;;;7.17;69.73;102355.28;5060740;28;46257;-71
2022/12/27 06:21:38;;;;;;;;;10.33;9.67;;;;;7.22;70.02;102355.06;5058459;28;45915;-70
2022/12/27 06:24:04;;;;;;;;;6.00;6.00;;;;;6.29;69.49;102210.22;5059179;28;45456;-71
2022/12/27 06:26:29;;;;;;;;;9.67;7.33;;;;;6.96;69.89;102311.47;5059192;28;45299;-72
2022/12/27 06:28:56;;;;;;;;;11.00;9.67;;;;;7.26;69.97;102380.38;5059226;28;46827;-72
2022/12/27 06:31:23;;;;;;;;;5.67;5.67;;;;;7.22;69.99;102384.16;5058823;28;45466;-70
2022/12/27 06:33:50;;;;;;;;;9.00;6.67;;;;;7.02;69.83;102348.19;5058597;28;45388;-71
2022/12/27 06:36:19;;;;;;;;;9.00;6.00;;;;;6.87;69.97;102311.97;5058966;28;45409;-71
2022/12/27 06:38:45;;;;;;;;;6.33;5.00;;;;;7.03;70.34;102346.41;5058647;28;46359;-71
2022/12/27 06:41:13;;;;;;;;;6.00;5.00;;;;;7.12;70.33;102349.38;5058330;28;45383;-71
2022/12/27 06:43:39;;;;;;;;;11.00;8.00;;;;;7.12;70.69;102361.75;5058702;28;45294;-72
2022/12/27 06:46:09;;;;;;;;;6.00;5.00;;;;;7.02;70.94;102369.34;5040386;28;45569;-71
2022/12/27 06:48:35;;;;;;;;;3.00;3.00;;;;;7.08;70.08;102361.06;5058285;28;46290;-71
2022/12/27 06:51:03;;;;;;;;;11.00;10.00;;;;;6.04;70.44;102184.25;5040439;28;45407;-72
2022/12/27 06:53:28;;;;;;;;;10.00;7.00;;;;;7.12;70.55;102357.31;5058590;28;45397;-71
2022/12/27 06:55:54;;;;;;;;;8.33;7.00;;;;;7.12;70.32;102359.09;5058173;28;49481;-71
2022/12/27 06:58:19;;;;;;;;;6.33;5.67;;;;;7.03;70.35;102349.88;5057521;28;57649;-71
2022/12/27 07:00:44;;;;;;;;;10.00;6.33;;;;;6.27;69.87;102201.53;5040125;28;52154;-69
2022/12/27 07:03:09;;;;;;;;;6.00;4.67;;;;;7.16;70.12;102350.06;5057947;28;52598;-72
2022/12/27 07:05:35;;;;;;;;;10.00;9.00;;;;;7.09;70.79;102348.69;5057813;28;51016;-71
2022/12/27 07:08:00;;;;;;;;;10.00;8.67;;;;;7.08;70.37;102358.44;5058189;28;45346;-71
2022/12/27 07:10:26;;;;;;;;;5.33;5.33;;;;;6.82;70.39;102317.50;5058405;28;45280;-70
2022/12/27 07:12:51;;;;;;;;;9.67;6.67;;;;;7.21;70.64;102358.63;5058359;28;45359;-71
2022/12/27 07:15:16;;;;;;;;;14.33;10.33;;;;;7.06;69.93;102328.56;5058009;28;45578;-71
2022/12/27 07:17:42;;;;;;;;;7.00;6.67;;;;;7.27;70.23;102368.88;5057953;28;45584;-71
2022/12/27 07:20:08;;;;;;;;;11.00;7.00;;;;;7.28;70.02;102371.44;5058449;28;45465;-71
2022/12/27 07:22:33;;;;;;;;;11.33;11.33;;;;;7.32;70.05;102374.75;5057801;28;45702;-72
2022/12/27 07:24:59;;;;;;;;;7.00;7.00;;;;;7.28;70.02;102386.44;5058237;28;45266;-70
2022/12/27 07:27:24;;;;;;;;;7.00;7.00;;;;;6.81;69.60;102313.16;5057826;28;45982;-72
2022/12/27 07:29:50;;;;;;;;;9.00;6.33;;;;;5.72;70.08;102130.44;5039903;28;45418;-71
2022/12/27 07:32:16;;;;;;;;;6.33;6.33;;;;;6.58;69.37;102268.56;5058108;28;45482;-73
2022/12/27 07:34:41;;;;;;;;;6.00;5.33;;;;;7.20;69.86;102362.19;5058212;28;45421;-72
2022/12/27 07:37:07;;;;;;;;;6.33;6.33;;;;;7.15;69.80;102370.38;5057814;28;45508;-72
2022/12/27 07:39:32;;;;;;;;;7.33;7.33;;;;;6.72;69.77;102289.84;5057849;28;45432;-72
2022/12/27 07:41:57;;;;;;;;;11.33;8.33;;;;;7.26;69.57;102380.38;5058258;28;45712;-72
2022/12/27 07:44:22;;;;;;;;;10.67;8.33;;;;;6.53;69.58;102249.47;5058012;28;45713;-74
2022/12/27 07:46:48;;;;;;;;;12.00;8.33;;;;;6.95;69.64;102310.63;5057206;28;64128;-72
2022/12/27 07:49:13;;;;;;;;;8.33;7.00;;;;;7.42;69.77;102397.16;5057618;28;45206;-72
2022/12/27 07:51:38;;;;;;;;;10.00;10.00;;;;;6.56;69.72;102234.31;5058038;28;45420;-73
2022/12/27 07:54:04;;;;;;;;;11.33;8.33;;;;;6.48;68.93;102223.31;5057929;28;45151;-70
2022/12/27 07:56:29;;;;;;;;;9.00;7.00;;;;;7.44;69.54;102387.34;5057283;28;46597;-73
2022/12/27 07:58:57;;;;;;;;;11.00;8.33;;;;;7.44;69.44;102397.06;5057103;28;45252;-72
2022/12/27 08:01:24;;;;;;;;;10.00;10.00;;;;;6.91;69.52;102281.78;5057897;28;45287;-70
2022/12/27 08:03:50;;;;;;;;;12.00;9.00;;;;;7.10;69.54;102316.88;5039496;28;45629;-70
2022/12/27 08:06:35;;;;;;;;;11.00;11.00;;;;;7.43;69.35;102377.69;5058312;28;46090;-72
2022/12/27 08:09:05;;;;;;;;;13.00;8.67;;;;;7.50;69.27;102389.63;5057432;28;45244;-73
2022/12/27 08:11:30;;;;;;;;;6.33;6.00;;;;;7.48;69.40;102396.81;5057249;28;45331;-69
2022/12/27 08:13:56;;;;;;;;;10.67;7.67;;;;;7.35;69.11;102355.22;5057413;28;45451;-70
2022/12/27 08:16:24;;;;;;;;;11.00;7.00;;;;;7.50;68.93;102380.84;5038944;28;47594;-70
2022/12/27 08:18:49;;;;;;;;;9.00;7.00;;;;;7.42;68.58;102368.03;5038902;28;45605;-72
2022/12/27 08:21:14;;;;;;;;;7.33;3.33;;;;;7.38;69.27;102366.47;5057176;28;45419;-70
2022/12/27 08:23:40;;;;;;;;;5.67;5.67;;;;;7.51;68.75;102396.63;5057265;28;45454;-71
2022/12/27 08:26:06;;;;;;;;;12.00;9.00;;;;;7.30;69.36;102361.63;5056871;28;46058;-72
2022/12/27 08:28:32;;;;;;;;;8.67;8.67;;;;;7.42;69.03;102388.38;5056980;28;45283;-71
2022/12/27 08:30:58;;;;;;;;;11.67;10.33;;;;;7.49;68.99;102393.22;5038932;28;45539;-70
2022/12/27 08:33:24;;;;;;;;;8.67;7.67;;;;;7.19;68.96;102352.53;5057198;28;45244;-72
2022/12/27 08:35:49;;;;;;;;;7.33;7.00;;;;;7.03;69.12;102322.59;5056759;28;46177;-72
2022/12/27 08:38:15;;;;;;;;;13.00;10.33;;;;;7.08;68.87;102331.97;5056893;28;45257;-72
2022/12/27 08:40:43;;;;;;;;;11.00;8.67;;;;;7.28;68.79;102360.00;5056920;28;45268;-71
2022/12/27 08:43:09;;;;;;;;;13.67;10.67;;;;;7.57;68.82;102409.53;5038803;28;45573;-72
2022/12/27 08:45:35;;;;;;;;;11.67;11.33;;;;;7.25;68.95;102347.78;5055135;28;46921;-72
2022/12/27 08:48:01;;;;;;;;;10.00;7.33;;;;;7.39;69.05;102373.47;5056555;28;45262;-74
2022/12/27 08:50:27;;;;;;;;;14.33;10.67;;;;;7.52;68.63;102395.69;5056949;28;45553;-72
2022/12/27 08:52:57;;;;;;;;;12.67;12.67;;;;;5.93;68.23;102120.56;5056817;28;45326;-71
2022/12/27 08:55:23;;;;;;;;;10.00;9.67;;;;;7.59;68.48;102406.78;5054962;28;47668;-72
2022/12/27 08:57:48;;;;;;;;;12.00;9.33;;;;;7.58;68.44;102423.63;5056322;28;45472;-72
2022/12/27 09:00:14;;;;;;;;;13.67;12.67;;;;;7.37;69.12;102395.66;5056535;28;45856;-71
2022/12/27 09:02:39;;;;;;;;;11.67;10.67;;;;;7.53;68.79;102423.88;5056790;28;45296;-72
2022/12/27 09:05:05;;;;;;;;;13.67;11.00;;;;;6.56;68.36;102250.16;5038272;28;48283;-72
2022/12/27 09:07:31;;;;;;;;;13.67;12.00;;;;;7.50;68.61;102413.47;5056573;28;45579;-71
2022/12/27 09:09:56;;;;;;;;;14.00;9.67;;;;;7.60;68.62;102413.78;5057320;28;45363;-72
2022/12/27 09:12:22;;;;;;;;;12.33;11.33;;;;;7.56;68.56;102417.56;5057243;28;46089;-73
2022/12/27 09:14:47;;;;;;;;;8.00;5.00;;;;;7.69;68.70;102441.56;5059995;28;51732;-72
2022/12/27 09:17:12;;;;;;;;;12.00;12.00;;;;;7.76;68.61;102435.00;5076762;27;45382;-72
2022/12/27 09:19:38;;;;;;;;;7.67;6.00;;;;;6.72;68.26;102256.34;5076098;28;45214;-72
2022/12/27 09:22:03;;;;;;;;;8.67;8.67;;;;;7.17;67.91;102315.59;5080590;27;45217;-71
2022/12/27 09:24:29;;;;;;;;;13.00;9.00;;;;;7.37;68.20;102330.38;5077957;28;47595;-70
2022/12/27 09:26:54;;;;;;;;;13.00;11.67;;;;;7.14;67.85;102281.38;5079772;27;45277;-71
2022/12/27 09:29:19;;;;;;;;;11.33;10.33;;;;;7.85;67.43;102402.72;5079447;27;55343;-71
2022/12/27 09:31:45;;;;;;;;;11.33;11.33;;;;;7.87;67.65;102396.41;5079923;28;45166;-73
2022/12/27 09:34:10;;;;;;;;;15.00;14.67;;;;;7.38;67.60;102318.84;5078159;28;46381;-71
2022/12/27 09:36:37;;;;;;;;;15.33;13.00;;;;;7.08;67.30;102267.66;5079868;27;45294;-72
2022/12/27 09:39:03;;;;;;;;;5.33;5.33;;;;;7.25;67.05;102276.38;5078571;28;45262;-71
2022/12/27 09:42:00;;;;;;;;;9.33;8.00;;;;;8.21;66.83;102427.13;5095900;27;45549;-72
2022/12/27 09:44:52;;;;;;;;;13.00;12.00;;;;;8.29;66.81;102431.97;5078415;28;47606;-72
2022/12/27 09:47:29;;;;;;;;;19.33;16.00;;;;;8.38;66.71;102433.28;5080422;27;45447;-73
2022/12/27 09:50:00;;;;;;;;;16.00;12.67;;;;;8.42;66.37;102440.13;5079544;28;45502;-73
2022/12/27 09:52:40;;;;;;;;;20.00;15.33;;;;;7.63;65.67;102287.44;5078246;27;45672;-72
2022/12/27 09:55:19;;;;;;;;;14.67;11.67;;;;;8.30;66.00;102420.44;5079949;27;45450;-73
2022/12/27 09:57:46;;;;;;;;;12.00;11.00;;;;;8.01;66.07;102344.41;5079233;27;45232;-72
2022/12/27 10:00:18;;;;;;;;;12.67;11.67;;;;;8.51;65.71;102431.63;5079768;27;45263;-71
2022/12/27 10:02:44;;;;;;;;;13.33;12.00;;;;;7.79;65.77;102324.47;5079704;27;45515;-73
2022/12/27 10:05:33;;;;;;;;;11.67;9.67;;;;;8.15;66.42;102365.69;5077747;28;48459;-72
2022/12/27 10:08:10;;;;;;;;;11.33;10.67;;;;;8.60;66.32;102428.44;5079204;28;45355;-73
2022/12/27 10:10:50;;;;;;;;;14.00;11.33;;;;;8.65;65.43;102421.09;5079284;28;45398;-72
2022/12/27 10:13:24;;;;;;;;;10.33;10.33;;;;;8.68;65.64;102426.19;5079451;28;45268;-71
2022/12/27 10:15:52;;;;;;;;;14.67;12.00;;;;;8.67;65.24;102421.84;5079121;27;45960;-72
2022/12/27 10:18:23;;;;;;;;;17.67;16.67;;;;;8.66;65.05;102421.94;5079288;28;45233;-72
2022/12/27 10:20:54;;;;;;;;;13.00;13.00;;;;;8.37;64.94;102370.63;5079313;28;45283;-72
2022/12/27 10:23:24;;;;;;;;;15.67;14.00;;;;;8.53;65.65;102395.28;5077933;27;45500;-73
2022/12/27 10:25:57;;;;;;;;;13.67;13.67;;;;;8.64;66.11;102415.88;5078788;27;45766;-72
2022/12/27 10:28:28;;;;;;;;;13.00;13.00;;;;;8.23;65.80;102351.06;5077562;28;45730;-71
2022/12/27 10:30:54;;;;;;;;;13.33;12.33;;;;;8.33;65.83;102363.75;5077362;28;45360;-74
2022/12/27 10:33:26;;;;;;;;;8.00;7.00;;;;;8.45;65.84;102392.25;5076912;27;45392;-71
2022/12/27 10:35:52;;;;;;;;;10.67;6.67;;;;;8.64;65.74;102407.91;5076743;28;47355;-73
2022/12/27 10:38:19;;;;;;;;;13.67;10.00;;;;;7.59;65.25;102227.66;5078517;27;45389;-72
2022/12/27 10:41:04;;;;;;;;;14.00;12.67;;;;;8.19;65.12;102320.38;5078869;28;45515;-72
2022/12/27 10:43:40;;;;;;;;;12.67;11.33;;;;;8.67;65.12;102395.31;5077703;28;45614;-72
2022/12/27 10:46:12;;;;;;;;;12.00;9.33;;;;;8.70;65.26;102394.28;5078997;27;46481;-71
2022/12/27 10:48:37;;;;;;;;;18.67;16.00;;;;;8.71;65.28;102394.19;5078557;27;45394;-72
2022/12/27 10:51:10;;;;;;;;;15.67;14.00;;;;;8.66;65.36;102393.63;5078886;27;45229;-74
2022/12/27 10:53:39;;;;;;;;;12.00;12.00;;;;;7.89;65.05;102278.00;5078716;27;45185;-72
2022/12/27 10:56:12;;;;;;;;;12.00;12.00;;;;;8.47;65.13;102366.50;5078111;28;45978;-71
2022/12/27 10:58:45;;;;;;;;;13.00;11.33;;;;;8.64;65.36;102400.81;5078380;27;45327;-70
2022/12/27 11:01:22;;;;;;;;;12.00;12.00;;;;;8.54;64.88;102381.09;5078393;28;45251;-72
2022/12/27 11:03:48;;;;;;;;;13.33;11.33;;;;;8.25;65.60;102337.72;5078667;27;45377;-71
2022/12/27 11:06:32;;;;;;;;;16.33;14.00;;;;;8.48;65.06;102371.69;5076841;27;47568;-72
2022/12/27 11:08:57;;;;;;;;;14.67;13.00;;;;;8.03;65.06;102281.66;5078227;27;45311;-72
2022/12/27 11:11:25;;;;;;;;;12.33;12.33;;;;;7.84;65.04;102242.16;5076894;28;45280;-71
2022/12/27 11:13:51;;;;;;;;;12.00;10.00;;;;;8.01;64.56;102294.09;5073642;27;45474;-71
2022/12/27 11:16:34;;;;;;;;;10.33;10.00;;;;;8.38;65.09;102327.25;5040096;28;48096;-73
2022/12/27 11:19:02;;;;;;;;;12.00;12.00;;;;;7.85;65.06;102250.00;5040165;28;45448;-72
2022/12/27 11:21:29;;;;;;;;;11.00;10.33;;;;;7.56;64.76;102200.53;5058301;28;45479;-73
2022/12/27 11:23:59;;;;;;;;;14.00;12.67;;;;;8.80;65.34;102390.97;5057868;28;45440;-73
2022/12/27 11:26:28;;;;;;;;;13.00;13.00;;;;;8.80;64.30;102372.41;5039471;28;46673;-73
2022/12/27 11:28:57;;;;;;;;;14.33;9.00;;;;;8.83;64.40;102366.94;5057853;28;45316;-72
2022/12/27 11:31:43;;;;;;;;;14.67;14.00;;;;;8.66;64.38;102327.34;5040019;28;45313;-72
2022/12/27 11:34:26;;;;;;;;;14.00;12.67;;;;;8.90;64.14;102351.50;5057964;28;45264;-72
2022/12/27 11:36:54;;;;;;;;;12.67;10.00;;;;;8.62;63.46;102288.72;5039104;28;48487;-74
2022/12/27 11:39:43;;;;;;;;;13.67;10.33;;;;;8.97;63.37;102346.66;5057366;28;45434;-73
2022/12/27 11:42:38;;;;;;;;;12.33;8.33;;;;;8.99;62.92;102324.41;5057774;28;45486;-71
2022/12/27 11:45:13;;;;;;;;;10.00;9.00;;;;;8.88;62.93;102288.91;5056724;28;45249;-73
2022/12/27 11:47:55;;;;;;;;;9.33;8.33;;;;;9.10;63.27;102318.44;5057522;28;46204;-72
2022/12/27 11:50:36;;;;;;;;;9.00;8.00;;;;;8.60;62.28;102245.50;5039159;28;45457;-73
2022/12/27 11:53:21;;;;;;;;;10.33;10.33;;;;;9.13;61.92;102328.84;5057134;28;45226;-70
2022/12/27 11:56:05;;;;;;;;;11.00;10.00;;;;;7.61;62.27;102082.88;5040245;28;45552;-73
2022/12/27 11:58:36;;;;;;;;;10.00;10.00;;;;;9.27;62.32;102334.16;5057127;28;46094;-74
2022/12/27 12:01:24;;;;;;;;;10.67;10.67;;;;;9.28;62.10;102325.25;5056899;28;45397;-73
2022/12/27 12:04:14;;;;;;;;;8.67;7.67;;;;;9.33;61.66;102325.78;5057224;28;45345;-72
2022/12/27 12:07:07;;;;;;;;;8.00;5.67;;;;;9.35;61.27;102325.69;5057436;28;45348;-71
2022/12/27 12:10:01;;;;;;;;;7.33;6.00;;;;;9.43;61.26;102329.59;5056752;28;46573;-73
2022/12/27 12:12:45;;;;;;;;;9.33;7.00;;;;;9.47;61.86;102330.22;5034797;28;45297;-72
2022/12/27 12:15:20;;;;;;;;;9.00;9.00;;;;;9.53;61.83;102326.31;5056941;28;45543;-72
2022/12/27 12:18:04;;;;;;;;;9.00;6.33;;;;;9.17;61.63;102264.03;5057224;28;45578;-72
2022/12/27 12:20:59;;;;;;;;;6.00;6.00;;;;;9.58;61.55;102311.78;5056873;28;45768;-71
2022/12/27 12:23:34;;;;;;;;;5.67;4.33;;;;;9.66;61.12;102313.97;5021845;28;45474;-72
2022/12/27 12:26:16;;;;;;;;;5.33;3.67;;;;;9.64;60.83;102319.38;5056814;28;45286;-73
2022/12/27 12:29:16;;;;;;;;;4.33;4.33;;;;;9.70;61.00;102320.78;5038751;28;45678;-73
2022/12/27 12:31:50;;;;;;;;;5.00;2.67;;;;;9.75;60.61;102302.75;5056776;28;45701;-72
2022/12/27 12:34:50;;;;;;;;;4.00;4.00;;;;;9.80;60.41;102297.13;5057043;28;45555;-71
2022/12/27 12:37:48;;;;;;;;;7.00;5.33;;;;;9.79;59.81;102285.63;5038609;28;45326;-73
2022/12/27 12:40:24;;;;;;;;;3.00;3.00;;;;;9.83;60.12;102286.31;5049091;28;45523;-72
2022/12/27 12:43:12;;;;;;;;;7.00;4.00;;;;;9.83;59.35;102281.84;5056445;28;46863;-73
2022/12/27 12:45:56;;;;;;;;;3.67;3.00;;;;;9.85;59.89;102266.66;5056712;28;45321;-73
2022/12/27 12:48:43;;;;;;;;;10.33;7.67;;;;;8.23;59.22;101980.16;5038361;28;45491;-70
2022/12/27 12:51:18;;;;;;;;;4.00;4.00;;;;;9.93;59.65;102258.16;5057015;28;45362;-72
2022/12/27 12:53:49;;;;;;;;;4.00;3.00;;;;;9.96;59.67;102260.63;5056086;28;45621;-73
2022/12/27 12:56:41;;;;;;;;;4.00;3.00;;;;;9.93;59.31;102256.38;5059560;28;45182;-73
2022/12/27 12:59:25;;;;;;;;;6.33;4.33;;;;;9.96;59.26;102248.19;5060290;28;45386;-74
2022/12/27 13:02:28;;;;;;;;;3.00;3.00;;;;;9.83;59.90;102212.78;5060350;28;45474;-73
2022/12/27 13:05:11;;;;;;;;;3.00;3.00;;;;;10.10;59.60;102247.25;5059807;28;46775;-71
2022/12/27 13:08:00;;;;;;;;;3.00;3.00;;;;;9.87;59.05;102206.31;5059933;28;45333;-74
2022/12/27 13:10:40;;;;;;;;;3.00;3.00;;;;;9.62;59.21;102155.81;5041643;28;45553;-72
2022/12/27 13:13:41;;;;;;;;;8.67;5.67;;;;;10.16;58.95;102248.63;5060083;28;45337;-73
2022/12/27 13:16:57;;;;;;;;;5.00;5.00;;;;;10.20;59.40;102237.69;5041953;28;48343;-72
2022/12/27 13:19:41;;;;;;;;;9.33;8.33;;;;;10.23;59.09;102234.03;4977921;28;45531;-72
2022/12/27 13:22:23;;;;;;;;;7.67;4.00;;;;;10.22;58.06;102227.00;4978514;28;45375;-70
2022/12/27 13:25:07;;;;;;;;;2.00;2.00;;;;;10.25;58.23;102226.78;5042693;28;45562;-73